Alberta, Alabama
Current Conditions -  °F | °C
As of 11:35 PM on Sunday 21 Dec 2014 (Local Time) from KSEM Reporting Station
Overcast Overcast  
Wind Chill: 52°   Ceiling: 700
Heat Index: 52°   Visibility: 7mi
Dew Point: 50°   Wind: 8mph
Humidity: 94%   Direction: 100°E
Pressure: 30.02"   Gusts: NA
Location:  32.23°N, 87.41°W
Report Text: KSEM 220535Z AUTO 10007KT 060V130 7SM OVC007 11/10 A3002 RMK AO2
Loading
Personal Weather Stations






























Interactive Weather Map New forecast layout! Learn more

10-Day Weather Forecast

Advertisements
Track Severe Weather on mobile